Time;durP1;ratioP1;P1;durP2;ratioP2;P2;SDS_P1;SDS_P2;PMS_P1;PMS_P2;Temp;Humidity;BMP_temperature;BMP_pressure;BME280_temperature;BME280_humidity;BME280_pressure;Samples;Min_cycle;Max_cycle;Signal;HPM_P1;HPM_P2
2023/05/31 00:01:08;;;;;;;26.83;10.70;;;;;;;16.07;100.00;97722.56;5048698;28;20031;-77
2023/05/31 00:03:35;;;;;;;25.23;10.13;;;;;;;16.08;100.00;97727.84;5037259;28;20086;-78
2023/05/31 00:06:00;;;;;;;23.25;9.65;;;;;;;16.12;100.00;97732.00;5044449;28;20063;-78
2023/05/31 00:08:26;;;;;;;20.33;9.45;;;;;;;16.09;100.00;97715.19;5059055;28;20107;-77
2023/05/31 00:10:51;;;;;;;21.60;8.88;;;;;;;16.12;100.00;97725.72;5050968;28;20025;-78
2023/05/31 00:13:17;;;;;;;16.98;8.93;;;;;;;16.05;100.00;97713.75;5032973;28;20029;-78
2023/05/31 00:15:42;;;;;;;18.20;8.73;;;;;;;16.06;100.00;97713.59;5041501;28;20035;-78
2023/05/31 00:18:08;;;;;;;18.38;9.75;;;;;;;16.03;100.00;97711.16;5048535;28;20119;-77
2023/05/31 00:20:33;;;;;;;24.73;9.20;;;;;;;16.09;100.00;97716.06;5055303;28;20400;-77
2023/05/31 00:22:59;;;;;;;28.98;9.45;;;;;;;16.11;100.00;97718.63;5050867;28;20028;-77
2023/05/31 00:25:25;;;;;;;23.83;9.77;;;;;;;16.15;100.00;97725.50;5063550;28;20032;-77
2023/05/31 00:27:51;;;;;;;24.02;9.80;;;;;;;16.20;100.00;97729.53;5070951;28;20029;-78
2023/05/31 00:30:16;;;;;;;21.08;10.50;;;;;;;16.20;100.00;97739.47;5048753;28;20408;-77
2023/05/31 00:32:42;;;;;;;20.77;8.82;;;;;;;16.22;100.00;97740.19;5065516;28;20048;-78
2023/05/31 00:35:08;;;;;;;22.30;8.73;;;;;;;16.18;100.00;97736.06;5062028;28;20031;-78
2023/05/31 00:37:37;;;;;;;18.08;8.57;;;;;;;16.17;100.00;97735.19;5052431;28;20037;-78
2023/05/31 00:40:05;;;;;;;18.30;8.57;;;;;;;16.12;100.00;97742.78;5054916;28;20039;-78
2023/05/31 00:42:34;;;;;;;22.45;10.00;;;;;;;16.20;100.00;97739.47;5063816;28;20028;-78
2023/05/31 00:44:59;;;;;;;39.33;10.50;;;;;;;16.16;100.00;97732.59;5070604;28;20028;-77
2023/05/31 00:47:28;;;;;;;26.95;10.35;;;;;;;16.15;100.00;97739.84;5069259;28;20044;-77
2023/05/31 00:49:55;;;;;;;25.50;11.25;;;;;;;16.05;100.00;97725.41;5062111;28;20378;-78
2023/05/31 00:52:20;;;;;;;58.67;11.63;;;;;;;15.94;100.00;97728.09;5035362;28;20107;-77
2023/05/31 00:54:46;;;;;;;27.92;11.80;;;;;;;15.99;100.00;97741.22;5061401;28;20497;-78
2023/05/31 00:57:11;;;;;;;36.35;11.15;;;;;;;16.04;100.00;97733.59;5044421;28;20020;-78
2023/05/31 00:59:37;;;;;;;35.92;11.50;;;;;;;16.05;100.00;97736.19;5063884;28;20042;-78
2023/05/31 01:02:03;;;;;;;32.95;10.98;;;;;;;16.04;100.00;97739.88;5055428;28;20075;-77
2023/05/31 01:04:32;;;;;;;31.30;10.77;;;;;;;15.98;100.00;97734.97;5049534;28;20158;-78
2023/05/31 01:07:00;;;;;;;32.20;11.18;;;;;;;15.99;100.00;97735.81;5032807;28;20014;-77
2023/05/31 01:09:27;;;;;;;29.63;10.75;;;;;;;15.94;100.00;97738.88;5068960;28;20025;-78
2023/05/31 01:12:05;;;;;;;33.22;11.57;;;;;;;15.94;100.00;97738.88;5060940;28;20056;-78
2023/05/31 01:15:07;;;;;;;24.83;11.32;;;;;;;16.04;100.00;97744.41;5068902;28;20023;-78
2023/05/31 01:17:50;;;;;;;34.00;11.52;;;;;;;16.01;100.00;97752.75;5068748;28;20262;-77
2023/05/31 01:20:17;;;;;;;30.10;11.27;;;;;;;16.01;100.00;97744.66;5060614;28;20033;-77
2023/05/31 01:23:18;;;;;;;41.78;11.30;;;;;;;15.94;100.00;97748.81;5048789;28;20513;-77
2023/05/31 01:26:05;;;;;;;34.42;12.00;;;;;;;15.85;100.00;97742.31;5057786;28;20434;-77
2023/05/31 01:28:34;;;;;;;35.78;11.70;;;;;;;15.89;100.00;97748.34;5070355;28;20028;-77
2023/05/31 01:31:02;;;;;;;31.48;10.63;;;;;;;15.95;100.00;97755.94;5055917;28;20045;-77
2023/05/31 01:33:28;;;;;;;27.95;10.45;;;;;;;15.92;100.00;97750.78;5054604;28;20075;-76
2023/05/31 01:35:53;;;;;;;25.98;9.57;;;;;;;15.97;100.00;97754.81;5062899;28;20068;-77
2023/05/31 01:38:19;;;;;;;26.83;11.20;;;;;;;15.93;100.00;97763.31;5050594;28;20539;-78
2023/05/31 01:40:46;;;;;;;30.15;10.68;;;;;;;15.95;100.00;97758.63;5070156;28;20024;-77
2023/05/31 01:43:12;;;;;;;37.05;10.40;;;;;;;15.92;100.00;97753.47;5057037;28;20056;-78
2023/05/31 01:45:39;;;;;;;27.83;11.00;;;;;;;15.90;100.00;97753.63;5046734;28;20028;-77
2023/05/31 01:48:06;;;;;;;28.20;10.85;;;;;;;15.82;100.00;97761.44;5062305;28;20029;-77
2023/05/31 01:50:35;;;;;;;33.70;11.32;;;;;;;15.80;100.00;97763.41;5053745;28;20490;-77
2023/05/31 01:53:01;;;;;;;28.65;11.52;;;;;;;15.82;100.00;97772.25;5039930;28;20032;-77
2023/05/31 01:55:27;;;;;;;38.45;12.30;;;;;;;15.77;100.00;97763.66;5035691;28;20037;-77
2023/05/31 01:57:54;;;;;;;35.50;11.15;;;;;;;15.79;100.00;97761.69;5069007;28;20533;-77
2023/05/31 02:00:22;;;;;;;32.50;11.90;;;;;;;15.71;100.00;97756.91;5059991;28;20397;-77
2023/05/31 02:02:47;;;;;;;28.45;11.50;;;;;;;15.79;100.00;97772.47;5068167;28;20031;-77
2023/05/31 02:05:13;;;;;;;38.17;11.23;;;;;;;15.78;100.00;97767.22;5072145;28;20025;-77
2023/05/31 02:07:40;;;;;;;22.88;10.45;;;;;;;15.81;100.00;97765.13;5072199;28;20028;-78
2023/05/31 02:10:06;;;;;;;36.88;11.43;;;;;;;15.79;100.00;97769.78;5054227;28;20029;-78
2023/05/31 02:12:32;;;;;;;26.55;11.70;;;;;;;15.70;100.00;97757.88;5064561;28;20082;-78
2023/05/31 02:14:58;;;;;;;34.00;10.70;;;;;;;15.70;100.00;97763.28;5039426;28;20028;-77
2023/05/31 02:17:23;;;;;;;31.88;12.50;;;;;;;15.74;100.00;97769.31;5055724;28;20025;-79
2023/05/31 02:19:52;;;;;;;31.77;12.15;;;;;;;15.83;100.00;97773.09;5072000;28;20107;-78
2023/05/31 02:22:19;;;;;;;32.28;10.70;;;;;;;15.80;100.00;97773.34;5069117;28;20452;-78
2023/05/31 02:24:45;;;;;;;34.03;11.80;;;;;;;15.75;100.00;97762.06;5043590;28;20071;-78
2023/05/31 02:27:11;;;;;;;30.23;11.77;;;;;;;15.83;100.00;97773.09;5043482;28;20032;-78
2023/05/31 02:29:37;;;;;;;34.47;11.75;;;;;;;15.81;100.00;97758.88;5060941;28;20408;-78
2023/05/31 02:32:02;;;;;;;29.10;12.20;;;;;;;15.78;100.00;97768.06;5062925;28;20155;-77
2023/05/31 02:34:28;;;;;;;28.38;11.98;;;;;;;15.80;100.00;97776.03;5059679;28;20036;-78
2023/05/31 02:36:53;;;;;;;30.60;11.93;;;;;;;15.88;100.00;97768.19;5054859;28;20024;-78
2023/05/31 02:39:19;;;;;;;35.92;12.73;;;;;;;15.88;100.00;97784.38;5062078;28;20028;-78
2023/05/31 02:41:45;;;;;;;28.70;11.38;;;;;;;15.89;100.00;97775.31;5051741;28;20029;-78
2023/05/31 02:44:10;;;;;;;28.15;12.27;;;;;;;15.89;100.00;97783.41;5065749;28;20051;-77
2023/05/31 02:46:36;;;;;;;23.23;11.32;;;;;;;15.89;100.00;97783.41;5058722;28;20021;-78
2023/05/31 02:49:02;;;;;;;27.55;11.77;;;;;;;15.87;100.00;97777.28;5061066;28;20108;-78
2023/05/31 02:51:28;;;;;;;28.08;13.15;;;;;;;15.83;100.00;97784.75;5054698;28;20024;-78
2023/05/31 02:53:53;;;;;;;37.88;12.63;;;;;;;15.81;100.00;97780.47;5064755;28;20104;-78
2023/05/31 02:56:19;;;;;;;29.13;12.52;;;;;;;15.79;100.00;97788.66;5055361;28;20443;-78
2023/05/31 02:58:45;;;;;;;23.40;10.68;;;;;;;15.78;100.00;97783.41;5051169;28;20427;-78
2023/05/31 03:01:11;;;;;;;20.38;9.27;;;;;;;15.76;100.00;97778.13;5052898;28;20111;-78
2023/05/31 03:03:36;;;;;;;18.30;9.40;;;;;;;15.75;100.00;97786.34;5063223;28;20495;-78
2023/05/31 03:06:04;;;;;;;15.95;9.40;;;;;;;15.69;100.00;97769.66;5066922;28;20024;-77
2023/05/31 03:08:30;;;;;;;18.55;9.45;;;;;;;15.82;100.00;97779.47;5046973;28;20052;-77
2023/05/31 03:10:56;;;;;;;15.90;9.40;;;;;;;15.77;100.00;97773.59;5036676;28;20033;-77
2023/05/31 03:13:22;;;;;;;23.77;10.43;;;;;;;15.76;100.00;97767.31;5061862;28;20455;-78
2023/05/31 03:15:47;;;;;;;19.30;10.25;;;;;;;15.90;100.00;97775.22;5064522;28;20451;-78
2023/05/31 03:18:13;;;;;;;23.85;10.50;;;;;;;15.98;100.00;97771.88;5067546;28;20028;-78
2023/05/31 03:20:38;;;;;;;24.75;11.57;;;;;;;15.95;100.00;97777.53;5054148;28;20035;-77
2023/05/31 03:23:04;;;;;;;28.67;12.35;;;;;;;15.98;100.00;97769.19;5059469;28;20043;-78
2023/05/31 03:25:30;;;;;;;31.05;12.38;;;;;;;16.00;100.00;97765.38;5053111;28;20511;-77
2023/05/31 03:27:57;;;;;;;23.77;11.15;;;;;;;16.01;100.00;97763.53;5053894;28;20028;-78
2023/05/31 03:30:22;;;;;;;25.70;12.48;;;;;;;16.12;100.00;97768.91;5069142;28;20028;-78
2023/05/31 03:32:48;;;;;;;30.40;13.85;;;;;;;16.17;100.00;97767.59;5055298;28;20399;-79
2023/05/31 03:35:14;;;;;;;33.60;16.00;;;;;;;16.20;100.00;97766.47;5066401;28;20548;-78
2023/05/31 03:37:39;;;;;;;23.23;11.90;;;;;;;16.21;100.00;97744.75;5064270;28;20021;-78
2023/05/31 03:40:05;;;;;;;25.17;12.65;;;;;;;16.23;100.00;97759.00;5037849;28;20029;-77
2023/05/31 03:42:32;;;;;;;24.35;12.13;;;;;;;16.32;100.00;97741.19;5035838;28;20132;-78
2023/05/31 03:44:58;;;;;;;23.17;11.82;;;;;;;16.43;100.00;97748.38;5048120;28;20064;-77
2023/05/31 03:47:23;;;;;;;23.25;11.07;;;;;;;16.44;100.00;97732.06;5050180;28;20037;-78
2023/05/31 03:49:49;;;;;;;27.15;12.05;;;;;;;16.49;100.00;97729.84;5066948;28;20038;-78
2023/05/31 03:52:14;;;;;;;47.47;25.08;;;;;;;16.54;100.00;97735.75;5053163;28;20029;-77
2023/05/31 03:54:40;;;;;;;24.15;12.25;;;;;;;16.58;100.00;97742.59;5070123;28;20062;-78
2023/05/31 03:57:06;;;;;;;27.30;13.27;;;;;;;16.72;100.00;97731.53;5059458;28;20032;-77
2023/05/31 03:59:33;;;;;;;93.32;54.15;;;;;;;16.79;100.00;97729.16;5050004;28;20068;-77
2023/05/31 04:01:59;;;;;;;25.23;13.75;;;;;;;16.97;100.00;97730.31;5063717;28;20020;-78
2023/05/31 04:04:25;;;;;;;23.33;11.68;;;;;;;17.04;100.00;97717.16;5065341;28;20036;-78
2023/05/31 04:06:50;;;;;;;19.60;10.82;;;;;;;17.26;100.00;97725.97;5037470;28;20496;-78
2023/05/31 04:09:16;;;;;;;21.00;10.63;;;;;;;17.42;100.00;97721.94;5050295;28;20500;-80
2023/05/31 04:11:41;;;;;;;19.15;10.63;;;;;;;17.34;100.00;97706.41;5070800;28;20032;-78
2023/05/31 04:14:06;;;;;;;90.55;47.00;;;;;;;17.40;100.00;97700.44;5051775;28;20032;-78
2023/05/31 04:16:32;;;;;;;23.02;13.10;;;;;;;17.42;100.00;97697.59;5060855;28;20036;-78
2023/05/31 04:18:57;;;;;;;20.48;9.75;;;;;;;17.61;100.00;97689.63;5062754;28;20485;-78
2023/05/31 04:21:23;;;;;;;19.05;10.38;;;;;;;17.70;100.00;97692.38;5053325;28;20040;-78
2023/05/31 04:23:48;;;;;;;18.60;10.20;;;;;;;18.06;100.00;97685.53;5050504;28;20428;-84
2023/05/31 04:26:16;;;;;;;15.98;9.60;;;;;;;18.17;100.00;97676.44;5061970;28;20447;-80
2023/05/31 04:28:42;;;;;;;16.92;11.43;;;;;;;17.92;100.00;97658.00;5065067;28;20032;-79
2023/05/31 04:31:08;;;;;;;12.73;8.05;;;;;;;17.86;100.00;97660.25;5050531;28;20051;-77
2023/05/31 04:33:35;;;;;;;13.55;8.45;;;;;;;17.99;100.00;97653.75;5051373;28;20467;-77
2023/05/31 04:36:03;;;;;;;14.55;7.65;;;;;;;18.01;100.00;97655.31;5042635;28;20024;-78
2023/05/31 04:38:30;;;;;;;14.70;9.30;;;;;;;18.14;100.00;97646.94;5061599;28;20123;-77
2023/05/31 04:40:57;;;;;;;15.30;8.63;;;;;;;18.34;100.00;97654.09;5061180;28;20028;-79
2023/05/31 04:43:25;;;;;;;16.17;9.80;;;;;;;18.21;100.00;97656.22;5053988;28;20035;-79
2023/05/31 04:45:52;;;;;;;17.23;9.32;;;;;;;18.30;100.00;97652.69;5050242;28;20020;-79
2023/05/31 04:48:19;;;;;;;20.30;10.75;;;;;;;18.14;100.00;97647.81;5040601;28;20024;-79
2023/05/31 04:50:46;;;;;;;20.27;10.82;;;;;;;18.09;100.00;97655.47;5049361;28;20044;-79
2023/05/31 04:53:12;;;;;;;21.00;11.55;;;;;;;18.09;100.00;97658.19;5057849;28;20107;-79
2023/05/31 04:55:38;;;;;;;17.73;11.30;;;;;;;18.36;100.00;97662.97;5049101;28;20053;-78
2023/05/31 04:58:03;;;;;;;15.93;10.43;;;;;;;18.36;100.00;97644.81;5065916;28;20083;-78
2023/05/31 05:00:29;;;;;;;17.38;11.15;;;;;;;18.20;100.00;97665.34;5057416;28;20017;-79
2023/05/31 05:02:56;;;;;;;20.80;12.82;;;;;;;18.29;100.00;97661.78;5057348;28;20031;-79
2023/05/31 05:05:23;;;;;;;24.13;13.07;;;;;;;18.52;100.00;97657.84;5067707;28;20046;-78
2023/05/31 05:07:49;;;;;;;19.17;10.80;;;;;;;18.65;100.00;97654.88;5064723;28;20035;-78
2023/05/31 05:10:15;;;;;;;16.80;10.27;;;;;;;18.34;100.00;97637.84;5070510;28;20103;-79
2023/05/31 05:12:40;;;;;;;17.65;10.77;;;;;;;18.50;100.00;97650.88;5066173;28;20082;-78
2023/05/31 05:15:06;;;;;;;17.98;10.38;;;;;;;18.76;100.00;97655.59;5067735;28;20066;-79
2023/05/31 05:17:32;;;;;;;17.45;8.98;;;;;;;19.01;100.00;97648.69;5064637;28;20032;-78
2023/05/31 05:19:57;;;;;;;15.25;10.05;;;;;;;18.91;100.00;97654.16;5054743;28;20028;-78
2023/05/31 05:22:23;;;;;;;14.98;9.73;;;;;;;18.78;100.00;97644.59;5066101;28;20036;-78
2023/05/31 05:24:49;;;;;;;18.02;10.43;;;;;;;18.73;100.00;97645.06;5064518;28;20023;-77
2023/05/31 05:27:14;;;;;;;16.67;10.88;;;;;;;18.88;100.00;97651.75;5063678;28;20017;-77
2023/05/31 05:29:40;;;;;;;18.48;9.55;;;;;;;19.07;100.00;97648.16;5056932;28;20082;-77
2023/05/31 05:32:06;;;;;;;22.48;10.10;;;;;;;19.20;100.00;97647.81;5061384;28;20120;-78
2023/05/31 05:34:32;;;;;;;20.98;10.63;;;;;;;19.52;100.00;97642.91;5072568;28;20151;-79
2023/05/31 05:36:57;;;;;;;14.80;9.68;;;;;;;19.56;100.00;97638.91;5068775;28;20527;-78
2023/05/31 05:39:23;;;;;;;17.40;10.18;;;;;;;19.57;100.00;97634.31;5066211;28;20036;-79
2023/05/31 05:41:49;;;;;;;16.75;10.13;;;;;;;19.64;100.00;97640.88;5050939;28;20112;-78
2023/05/31 05:44:14;;;;;;;16.75;9.60;;;;;;;19.96;100.00;97631.28;5068854;28;20036;-77
2023/05/31 05:46:40;;;;;;;19.33;9.68;;;;;;;20.29;100.00;97615.41;5063544;28;20013;-78
2023/05/31 05:49:05;;;;;;;21.30;11.80;;;;;;;20.35;100.00;97625.66;5061971;28;20020;-78
2023/05/31 05:51:31;;;;;;;16.60;9.45;;;;;;;20.28;100.00;97624.56;5068367;28;20031;-76
2023/05/31 05:53:57;;;;;;;16.40;10.52;;;;;;;20.32;100.00;97621.38;5049181;28;20024;-76
2023/05/31 05:56:22;;;;;;;13.60;8.70;;;;;;;20.41;100.00;97630.47;5043468;28;20099;-76
2023/05/31 05:58:48;;;;;;;14.88;9.27;;;;;;;20.53;100.00;97630.09;5059255;28;20021;-78
2023/05/31 06:01:18;;;;;;;16.58;8.85;;;;;;;20.69;100.00;97629.41;5069376;28;20055;-78
2023/05/31 06:03:48;;;;;;;16.05;8.65;;;;;;;20.73;100.00;97630.81;5044420;28;20025;-78
2023/05/31 06:06:14;;;;;;;22.63;11.30;;;;;;;20.85;100.00;97631.41;5052107;28;20487;-77
2023/05/31 06:08:40;;;;;;;129.50;32.42;;;;;;;20.96;100.00;97632.03;5063454;28;20072;-77
2023/05/31 06:11:05;;;;;;;36.67;14.45;;;;;;;20.98;100.00;97635.44;5057269;28;20516;-77
2023/05/31 06:13:31;;;;;;;145.77;34.17;;;;;;;20.87;100.00;97627.53;5051835;28;20403;-77
2023/05/31 06:15:57;;;;;;;82.07;20.80;;;;;;;20.80;100.00;97629.16;5055328;28;20075;-76
2023/05/31 06:18:22;;;;;;;27.70;11.98;;;;;;;20.70;100.00;97639.28;5046353;28;20039;-77
2023/05/31 06:20:48;;;;;;;16.45;10.20;;;;;;;20.84;100.00;97638.72;5049552;28;20025;-77
2023/05/31 06:23:13;;;;;;;19.73;9.95;;;;;;;21.04;100.00;97636.69;5064436;28;20088;-77
2023/05/31 06:25:39;;;;;;;18.65;10.82;;;;;;;20.97;100.00;97622.00;5058321;28;20450;-78
2023/05/31 06:28:05;;;;;;;22.95;10.00;;;;;;;21.07;100.00;97629.03;5051532;28;20033;-78
2023/05/31 06:30:30;;;;;;;14.98;10.20;;;;;;;20.95;100.00;97640.31;5070085;28;20099;-77
2023/05/31 06:32:55;;;;;;;17.40;10.40;;;;;;;21.06;100.00;97638.22;5071504;28;20024;-78
2023/05/31 06:35:22;;;;;;;17.52;9.68;;;;;;;21.47;100.00;97625.78;5068887;28;20036;-77
2023/05/31 06:37:48;;;;;;;16.50;9.27;;;;;;;21.74;100.00;97630.19;5061019;28;20021;-78
2023/05/31 06:40:14;;;;;;;17.67;8.98;;;;;;;21.90;100.00;97627.56;5044466;28;20032;-77
2023/05/31 06:42:39;;;;;;;13.10;9.07;;;;;;;21.19;100.00;97626.97;5052980;28;20032;-77
2023/05/31 06:45:06;;;;;;;14.93;9.32;;;;;;;21.31;100.00;97625.69;5058177;28;20474;-78
2023/05/31 06:47:31;;;;;;;14.10;9.05;;;;;;;21.37;100.00;97635.09;5062347;28;20454;-77
2023/05/31 06:49:58;;;;;;;13.77;9.00;;;;;;;22.00;100.00;97622.00;5058395;28;20477;-77
2023/05/31 06:52:23;;;;;;;15.98;8.43;;;;;;;23.45;100.00;97615.91;5051843;28;20048;-76
2023/05/31 06:54:49;;;;;;;13.68;7.95;;;;;;;25.67;100.00;97607.75;5056191;28;20453;-77
2023/05/31 06:57:15;;;;;;;14.68;7.65;;;;;;;27.39;100.00;97602.22;5043959;28;20032;-78
2023/05/31 06:59:40;;;;;;;14.23;7.90;;;;;;;29.12;92.66;97595.47;5048341;28;20051;-78
2023/05/31 07:02:06;;;;;;;12.93;7.60;;;;;;;29.68;84.85;97584.06;5072072;28;20035;-77
2023/05/31 07:04:32;;;;;;;13.77;6.45;;;;;;;30.41;78.54;97575.41;5062500;28;20043;-77
2023/05/31 07:06:57;;;;;;;14.77;5.85;;;;;;;30.96;72.72;97573.84;5061066;28;20028;-77
2023/05/31 07:09:23;;;;;;;20.75;6.05;;;;;;;31.24;70.83;97570.66;5045798;28;20114;-77
2023/05/31 07:11:48;;;;;;;12.40;6.50;;;;;;;31.82;64.87;97564.84;5070754;28;20051;-78
2023/05/31 07:14:14;;;;;;;13.38;6.55;;;;;;;30.68;75.14;97565.06;5070580;28;20020;-76
2023/05/31 07:16:39;;;;;;;12.07;6.88;;;;;;;31.65;72.04;97561.81;5051564;28;20475;-78
2023/05/31 07:19:05;;;;;;;12.93;6.32;;;;;;;31.47;68.41;97554.28;5057511;28;20367;-77
2023/05/31 07:21:30;;;;;;;17.63;6.68;;;;;;;32.00;68.35;97565.69;5053576;28;20048;-78
2023/05/31 07:23:56;;;;;;;10.25;5.35;;;;;;;32.02;68.77;97562.72;5070514;28;20373;-78
2023/05/31 07:26:23;;;;;;;13.85;5.15;;;;;;;32.18;61.45;97540.81;5069283;28;20044;-77
2023/05/31 07:28:52;;;;;;;15.02;5.85;;;;;;;30.92;64.41;97528.34;5056448;28;20400;-77
2023/05/31 07:31:18;;;;;;;8.15;5.68;;;;;;;32.03;62.76;97545.03;5049843;28;20037;-76
2023/05/31 07:33:44;;;;;;;13.00;6.32;;;;;;;32.90;59.26;97554.78;5033557;28;20059;-78
2023/05/31 07:36:09;;;;;;;12.98;5.18;;;;;;;32.84;56.71;97544.66;5049970;28;20477;-77
2023/05/31 07:38:35;;;;;;;8.68;5.18;;;;;;;33.82;52.55;97544.97;5051075;28;20035;-76
2023/05/31 07:41:01;;;;;;;7.75;5.03;;;;;;;33.45;50.31;97522.13;5033365;28;20025;-77
2023/05/31 07:43:29;;;;;;;7.25;4.60;;;;;;;33.10;53.06;97522.09;5050993;28;20024;-78
2023/05/31 07:45:55;;;;;;;9.40;5.13;;;;;;;32.94;51.28;97506.13;5056210;28;20037;-77
2023/05/31 07:48:20;;;;;;;9.73;5.13;;;;;;;33.13;50.01;97510.53;5044695;28;20021;-75
2023/05/31 07:50:47;;;;;;;6.80;4.45;;;;;;;33.43;46.91;97494.63;5053324;28;20117;-77
2023/05/31 07:53:13;;;;;;;7.78;4.00;;;;;;;33.68;49.76;97508.31;5069773;28;20391;-76
2023/05/31 07:55:39;;;;;;;13.25;4.05;;;;;;;32.89;52.07;97514.28;5050956;28;20029;-77
2023/05/31 07:58:05;;;;;;;4.80;3.45;;;;;;;32.74;51.70;97500.88;5064959;28;20407;-75
2023/05/31 08:00:30;;;;;;;11.65;5.00;;;;;;;30.81;61.32;97501.44;5069716;28;20494;-75
2023/05/31 08:02:56;;;;;;;10.48;4.15;;;;;;;29.80;64.28;97494.91;5055653;28;20025;-76
2023/05/31 08:05:21;;;;;;;9.82;4.22;;;;;;;29.17;64.94;97490.97;5049248;28;20480;-76
2023/05/31 08:07:48;;;;;;;8.32;4.10;;;;;;;29.20;65.94;97500.72;5065001;28;20024;-76
2023/05/31 08:10:17;;;;;;;9.93;4.13;;;;;;;28.94;73.67;97512.59;5069623;28;20047;-76
2023/05/31 08:12:43;;;;;;;7.28;3.63;;;;;;;28.39;68.23;97495.31;5065954;28;20078;-76
2023/05/31 08:15:09;;;;;;;5.28;3.47;;;;;;;28.64;71.19;97508.53;5049289;28;20029;-76
2023/05/31 08:17:35;;;;;;;4.43;3.17;;;;;;;28.75;67.90;97507.91;5051841;28;20074;-76
2023/05/31 08:20:01;;;;;;;5.47;4.00;;;;;;;28.72;73.20;97514.69;5038527;28;20485;-76
2023/05/31 08:22:26;;;;;;;5.28;3.20;;;;;;;28.67;65.87;97499.88;5050495;28;20033;-76
2023/05/31 08:24:52;;;;;;;7.05;4.20;;;;;;;28.33;75.28;97515.41;5033042;28;20033;-77
2023/05/31 08:27:17;;;;;;;10.65;4.20;;;;;;;27.53;76.55;97498.75;5050581;28;20052;-77
2023/05/31 08:29:43;;;;;;;8.88;4.68;;;;;;;27.57;76.32;97505.53;5049446;28;20021;-76
2023/05/31 08:32:09;;;;;;;8.48;4.57;;;;;;;27.23;81.20;97509.09;5049298;28;20470;-76
2023/05/31 08:34:34;;;;;;;14.80;4.93;;;;;;;27.11;87.33;97538.16;5050458;28;20033;-76
2023/05/31 08:37:00;;;;;;;14.50;4.75;;;;;;;26.97;89.13;97530.88;5049518;28;20083;-76
2023/05/31 08:39:27;;;;;;;11.93;4.70;;;;;;;27.08;88.24;97530.31;5055774;28;20033;-76
2023/05/31 08:42:01;;;;;;;16.20;6.95;;;;;;;27.01;90.95;97532.16;5055883;28;20025;-76
2023/05/31 08:44:28;;;;;;;13.88;4.82;;;;;;;26.71;90.40;97523.19;5038993;28;20033;-77
2023/05/31 08:46:58;;;;;;;6.32;3.63;;;;;;;27.07;87.08;97530.53;5060057;28;20749;-76
2023/05/31 08:49:24;;;;;;;10.43;4.20;;;;;;;27.59;82.53;97533.69;5068655;28;20032;-77
2023/05/31 08:51:50;;;;;;;6.72;4.07;;;;;;;27.82;83.09;97530.63;5032434;28;20029;-77
2023/05/31 08:54:16;;;;;;;6.93;4.53;;;;;;;28.62;75.90;97533.50;5055680;28;20561;-77
2023/05/31 08:56:43;;;;;;;9.25;3.83;;;;;;;30.43;65.92;97542.03;5055549;28;20032;-75
2023/05/31 08:59:10;;;;;;;7.72;3.78;;;;;;;30.71;58.87;97519.56;5056985;28;20111;-76
2023/05/31 09:01:40;;;;;;;12.52;8.13;;;;;;;29.94;59.63;97490.19;5055835;28;20021;-76
2023/05/31 09:04:08;;;;;;;5.55;3.63;;;;;;;29.55;66.84;97503.03;5055593;28;20083;-76
2023/05/31 09:06:34;;;;;;;10.15;3.85;;;;;;;29.12;72.91;97507.31;5046723;28;20082;-76
2023/05/31 09:09:00;;;;;;;6.10;4.32;;;;;;;28.27;73.76;97491.47;5063982;28;20033;-76
2023/05/31 09:11:26;;;;;;;5.43;3.58;;;;;;;27.25;79.82;97473.19;5073099;28;20420;-76
2023/05/31 09:13:52;;;;;;;5.07;3.55;;;;;;;26.63;82.92;97481.31;5057051;28;20534;-76
2023/05/31 09:16:19;;;;;;;4.18;3.00;;;;;;;25.87;84.38;97472.66;5056677;28;20468;-76
2023/05/31 09:18:44;;;;;;;7.65;3.65;;;;;;;25.40;89.50;97485.06;5038571;28;20033;-76
2023/05/31 09:21:11;;;;;;;8.50;3.80;;;;;;;25.18;99.05;97515.09;5055561;28;20507;-75
2023/05/31 09:23:37;;;;;;;8.10;4.75;;;;;;;24.87;100.00;97544.47;5038560;28;20024;-75
2023/05/31 09:26:06;;;;;;;9.05;4.22;;;;;;;24.42;100.00;97539.00;5055455;28;20035;-75
2023/05/31 09:28:31;;;;;;;4.72;4.03;;;;;;;23.75;100.00;97535.91;5055550;28;20085;-75
2023/05/31 09:31:03;;;;;;;6.28;4.00;;;;;;;22.88;100.00;97552.31;5056568;28;20048;-75
2023/05/31 09:33:40;;;;;;;10.40;3.50;;;;;;;22.14;100.00;97551.38;5053743;28;20561;-75
2023/05/31 09:36:06;;;;;;;6.10;3.22;;;;;;;21.57;100.00;97560.31;5073615;28;20029;-76
2023/05/31 09:38:36;;;;;;;5.93;2.90;;;;;;;21.13;100.00;97558.72;5070560;28;20032;-77
2023/05/31 09:41:20;;;;;;;8.60;3.17;;;;;;;20.72;100.00;97538.50;5055818;28;20036;-76
2023/05/31 09:43:49;;;;;;;7.72;2.03;;;;;;;19.20;100.00;97523.91;5063755;28;20029;-76
2023/05/31 09:46:21;;;;;;;0.75;0.73;;;;;;;18.00;100.00;97547.16;5063574;28;20043;-77
2023/05/31 09:48:57;;;;;;;0.65;0.65;;;;;;;17.42;100.00;97547.00;5049486;28;20040;-76
2023/05/31 09:51:22;;;;;;;0.20;0.20;;;;;;;17.25;100.00;97561.19;5043154;28;20029;-76
2023/05/31 09:53:51;;;;;;;0.20;0.20;;;;;;;17.26;100.00;97596.19;5041249;28;20039;-77
2023/05/31 09:56:19;;;;;;;1.02;0.38;;;;;;;16.94;100.00;97616.22;5058218;28;20029;-77
2023/05/31 09:58:44;;;;;;;0.43;0.20;;;;;;;16.61;100.00;97641.59;5056541;28;20032;-78
2023/05/31 10:01:10;;;;;;;0.10;0.10;;;;;;;16.50;100.00;97666.75;5069779;28;20032;-77
2023/05/31 10:03:37;;;;;;;0.10;0.10;;;;;;;16.42;100.00;97693.53;5071607;28;20028;-77
2023/05/31 10:06:03;;;;;;;0.57;0.57;;;;;;;16.44;100.00;97715.00;5054631;28;20174;-78
2023/05/31 10:08:32;;;;;;;0.57;0.30;;;;;;;16.55;100.00;97710.44;5076592;28;20384;-78
2023/05/31 10:11:01;;;;;;;0.25;0.25;;;;;;;16.78;100.00;97714.81;5060906;28;20055;-79
2023/05/31 10:13:28;;;;;;;2.05;1.15;;;;;;;17.02;100.00;97717.25;5062310;28;20496;-78
2023/05/31 10:15:56;;;;;;;0.30;0.30;;;;;;;17.23;100.00;97726.22;5063285;28;20513;-79
2023/05/31 10:18:27;;;;;;;0.22;0.22;;;;;;;17.31;100.00;97712.06;5077538;28;20024;-79
2023/05/31 10:20:58;;;;;;;1.63;1.52;;;;;;;17.53;100.00;97716.47;5046330;28;20028;-77
2023/05/31 10:23:24;;;;;;;0.70;0.65;;;;;;;17.81;100.00;97730.16;5055785;28;20016;-77
2023/05/31 10:26:17;;;;;;;1.50;1.38;;;;;;;17.98;100.00;97727.81;5066720;28;20025;-78
2023/05/31 10:28:56;;;;;;;;;;;;;;;18.25;100.00;97744.31;5063213;28;20045;-77
2023/05/31 10:31:34;;;;;;;0.73;0.55;;;;;;;18.24;100.00;97729.06;5039668;28;20321;-77
2023/05/31 10:34:07;;;;;;;0.88;0.70;;;;;;;18.43;100.00;97721.84;5054685;28;20036;-77
2023/05/31 10:36:35;;;;;;;4.07;0.80;;;;;;;18.60;100.00;97719.47;5061975;28;20020;-77
2023/05/31 10:39:07;;;;;;;0.60;0.60;;;;;;;18.71;100.00;97717.50;5062919;28;20035;-77
2023/05/31 10:41:39;;;;;;;0.80;0.52;;;;;;;18.83;100.00;97738.03;5051153;28;20032;-77
2023/05/31 10:44:10;;;;;;;0.80;0.47;;;;;;;18.75;100.00;97732.47;5051216;28;20036;-77
2023/05/31 10:46:37;;;;;;;0.57;0.57;;;;;;;18.88;100.00;97732.22;5046721;28;20479;-76
2023/05/31 10:49:04;;;;;;;0.75;0.75;;;;;;;18.91;100.00;97732.78;5054042;28;20023;-75
2023/05/31 10:51:41;;;;;;;1.38;0.80;;;;;;;18.80;100.00;97726.63;5054927;28;20095;-76
2023/05/31 10:54:07;;;;;;;2.17;0.88;;;;;;;18.77;100.00;97716.91;5055696;28;20055;-74
2023/05/31 10:56:33;;;;;;;0.65;0.50;;;;;;;18.75;100.00;97709.94;5062548;28;20385;-75
2023/05/31 10:58:58;;;;;;;0.40;0.35;;;;;;;18.75;100.00;97713.50;5056288;28;20029;-75
2023/05/31 11:01:28;;;;;;;1.15;0.73;;;;;;;18.76;100.00;97717.94;5050924;28;20029;-74
2023/05/31 11:03:55;;;;;;;0.70;0.70;;;;;;;18.73;100.00;97699.25;5066222;28;20468;-74
2023/05/31 11:06:28;;;;;;;0.60;0.60;;;;;;;18.66;100.00;97692.69;5053713;28;20082;-74
2023/05/31 11:09:10;;;;;;;2.13;1.35;;;;;;;18.70;100.00;97699.50;5038644;28;20036;-74
2023/05/31 11:11:39;;;;;;;1.05;0.85;;;;;;;18.78;100.00;97691.53;5068674;28;20028;-74
2023/05/31 11:14:10;;;;;;;2.22;1.25;;;;;;;18.83;100.00;97694.66;5062335;28;20043;-74
2023/05/31 11:16:48;;;;;;;1.13;0.75;;;;;;;18.80;100.00;97700.38;5051180;28;20024;-79